sensor_id;sensor_type;location;lat;lon;timestamp;P1;durP1;ratioP1;P2;durP2;ratioP2
66741;SDS011;53654;54.152;19.432;2022-11-20T00:01:32;29.40;;;25.50;;
66741;SDS011;53654;54.152;19.432;2022-11-20T00:04:00;29.70;;;25.80;;
66741;SDS011;53654;54.152;19.432;2022-11-20T00:06:28;32.10;;;25.60;;
66741;SDS011;53654;54.152;19.432;2022-11-20T00:08:58;31.50;;;26.80;;
66741;SDS011;53654;54.152;19.432;2022-11-20T00:11:28;28.70;;;25.10;;
66741;SDS011;53654;54.152;19.432;2022-11-20T00:13:58;27.40;;;24.10;;
66741;SDS011;53654;54.152;19.432;2022-11-20T00:16:30;30.50;;;25.80;;
66741;SDS011;53654;54.152;19.432;2022-11-20T00:19:00;29.80;;;26.40;;
66741;SDS011;53654;54.152;19.432;2022-11-20T00:21:28;30.70;;;25.50;;
66741;SDS011;53654;54.152;19.432;2022-11-20T00:23:57;39.10;;;29.30;;
66741;SDS011;53654;54.152;19.432;2022-11-20T00:26:26;42.20;;;30.00;;
66741;SDS011;53654;54.152;19.432;2022-11-20T00:28:56;32.70;;;26.70;;
66741;SDS011;53654;54.152;19.432;2022-11-20T00:31:26;30.70;;;26.30;;
66741;SDS011;53654;54.152;19.432;2022-11-20T00:33:55;30.10;;;25.40;;
66741;SDS011;53654;54.152;19.432;2022-11-20T00:36:24;29.20;;;26.00;;
66741;SDS011;53654;54.152;19.432;2022-11-20T00:38:55;29.80;;;25.90;;
66741;SDS011;53654;54.152;19.432;2022-11-20T00:41:24;29.50;;;25.70;;
66741;SDS011;53654;54.152;19.432;2022-11-20T00:43:54;29.00;;;25.90;;
66741;SDS011;53654;54.152;19.432;2022-11-20T00:46:24;28.80;;;25.80;;
66741;SDS011;53654;54.152;19.432;2022-11-20T00:48:54;30.30;;;26.10;;
66741;SDS011;53654;54.152;19.432;2022-11-20T00:51:23;27.30;;;24.40;;
66741;SDS011;53654;54.152;19.432;2022-11-20T00:53:54;27.30;;;24.40;;
66741;SDS011;53654;54.152;19.432;2022-11-20T00:56:24;29.70;;;25.80;;
66741;SDS011;53654;54.152;19.432;2022-11-20T00:58:52;29.60;;;25.50;;
66741;SDS011;53654;54.152;19.432;2022-11-20T01:01:24;31.60;;;26.80;;
66741;SDS011;53654;54.152;19.432;2022-11-20T01:03:54;32.70;;;26.60;;
66741;SDS011;53654;54.152;19.432;2022-11-20T01:06:24;28.40;;;25.10;;
66741;SDS011;53654;54.152;19.432;2022-11-20T01:09:01;29.50;;;25.60;;
66741;SDS011;53654;54.152;19.432;2022-11-20T01:11:35;28.50;;;25.20;;
66741;SDS011;53654;54.152;19.432;2022-11-20T01:14:05;27.80;;;24.80;;
66741;SDS011;53654;54.152;19.432;2022-11-20T01:16:36;27.90;;;24.90;;
66741;SDS011;53654;54.152;19.432;2022-11-20T01:19:07;27.30;;;24.40;;
66741;SDS011;53654;54.152;19.432;2022-11-20T01:21:45;27.80;;;24.80;;
66741;SDS011;53654;54.152;19.432;2022-11-20T01:24:16;28.20;;;25.20;;
66741;SDS011;53654;54.152;19.432;2022-11-20T01:26:47;29.70;;;26.00;;
66741;SDS011;53654;54.152;19.432;2022-11-20T01:29:17;28.90;;;25.00;;
66741;SDS011;53654;54.152;19.432;2022-11-20T01:31:51;28.40;;;25.40;;
66741;SDS011;53654;54.152;19.432;2022-11-20T01:34:20;29.50;;;26.30;;
66741;SDS011;53654;54.152;19.432;2022-11-20T01:36:50;29.50;;;25.10;;
66741;SDS011;53654;54.152;19.432;2022-11-20T01:39:21;27.70;;;24.70;;
66741;SDS011;53654;54.152;19.432;2022-11-20T01:41:52;28.10;;;25.10;;
66741;SDS011;53654;54.152;19.432;2022-11-20T01:47:25;27.80;;;24.90;;
66741;SDS011;53654;54.152;19.432;2022-11-20T01:50:05;27.80;;;24.70;;
66741;SDS011;53654;54.152;19.432;2022-11-20T01:52:41;27.30;;;24.20;;
66741;SDS011;53654;54.152;19.432;2022-11-20T01:55:21;27.20;;;24.10;;
66741;SDS011;53654;54.152;19.432;2022-11-20T01:57:52;26.70;;;23.80;;
66741;SDS011;53654;54.152;19.432;2022-11-20T02:00:21;27.70;;;24.60;;
66741;SDS011;53654;54.152;19.432;2022-11-20T02:02:51;27.80;;;24.80;;
66741;SDS011;53654;54.152;19.432;2022-11-20T02:05:38;28.10;;;24.70;;
66741;SDS011;53654;54.152;19.432;2022-11-20T02:08:11;28.70;;;24.60;;
66741;SDS011;53654;54.152;19.432;2022-11-20T02:10:40;29.00;;;25.10;;
66741;SDS011;53654;54.152;19.432;2022-11-20T02:13:08;27.40;;;24.60;;
66741;SDS011;53654;54.152;19.432;2022-11-20T02:15:55;27.20;;;24.30;;
66741;SDS011;53654;54.152;19.432;2022-11-20T02:18:23;28.10;;;25.10;;
66741;SDS011;53654;54.152;19.432;2022-11-20T02:20:57;27.20;;;24.30;;
66741;SDS011;53654;54.152;19.432;2022-11-20T02:26:33;27.70;;;24.80;;
66741;SDS011;53654;54.152;19.432;2022-11-20T02:29:05;27.60;;;24.60;;
66741;SDS011;53654;54.152;19.432;2022-11-20T02:31:35;27.40;;;24.40;;
66741;SDS011;53654;54.152;19.432;2022-11-20T02:34:05;28.80;;;25.20;;
66741;SDS011;53654;54.152;19.432;2022-11-20T02:36:34;28.20;;;24.70;;
66741;SDS011;53654;54.152;19.432;2022-11-20T02:39:03;27.60;;;24.70;;
66741;SDS011;53654;54.152;19.432;2022-11-20T02:41:32;27.60;;;24.60;;
66741;SDS011;53654;54.152;19.432;2022-11-20T02:44:03;28.60;;;25.40;;
66741;SDS011;53654;54.152;19.432;2022-11-20T02:46:32;28.10;;;25.10;;
66741;SDS011;53654;54.152;19.432;2022-11-20T02:49:01;28.80;;;25.60;;
66741;SDS011;53654;54.152;19.432;2022-11-20T02:51:30;29.10;;;25.80;;
66741;SDS011;53654;54.152;19.432;2022-11-20T02:53:59;27.90;;;24.90;;
66741;SDS011;53654;54.152;19.432;2022-11-20T02:56:27;27.90;;;24.90;;
66741;SDS011;53654;54.152;19.432;2022-11-20T02:58:56;27.80;;;24.80;;
66741;SDS011;53654;54.152;19.432;2022-11-20T03:01:24;27.90;;;24.90;;
66741;SDS011;53654;54.152;19.432;2022-11-20T03:03:52;28.90;;;25.80;;
66741;SDS011;53654;54.152;19.432;2022-11-20T03:06:22;28.10;;;25.10;;
66741;SDS011;53654;54.152;19.432;2022-11-20T03:08:50;28.10;;;25.10;;
66741;SDS011;53654;54.152;19.432;2022-11-20T03:11:18;27.90;;;24.90;;
66741;SDS011;53654;54.152;19.432;2022-11-20T03:13:46;28.20;;;25.00;;
66741;SDS011;53654;54.152;19.432;2022-11-20T03:16:16;28.60;;;25.20;;
66741;SDS011;53654;54.152;19.432;2022-11-20T03:18:46;28.60;;;25.50;;
66741;SDS011;53654;54.152;19.432;2022-11-20T03:21:15;29.60;;;26.40;;
66741;SDS011;53654;54.152;19.432;2022-11-20T03:23:44;29.90;;;26.70;;
66741;SDS011;53654;54.152;19.432;2022-11-20T03:26:16;30.00;;;26.70;;
66741;SDS011;53654;54.152;19.432;2022-11-20T03:28:56;29.00;;;25.80;;
66741;SDS011;53654;54.152;19.432;2022-11-20T03:31:30;28.80;;;25.80;;
66741;SDS011;53654;54.152;19.432;2022-11-20T03:34:00;29.10;;;26.00;;
66741;SDS011;53654;54.152;19.432;2022-11-20T03:36:29;29.30;;;26.20;;
66741;SDS011;53654;54.152;19.432;2022-11-20T03:38:58;28.90;;;25.80;;
66741;SDS011;53654;54.152;19.432;2022-11-20T03:41:27;29.40;;;26.10;;
66741;SDS011;53654;54.152;19.432;2022-11-20T03:44:00;30.20;;;26.90;;
66741;SDS011;53654;54.152;19.432;2022-11-20T03:46:30;28.90;;;25.90;;
66741;SDS011;53654;54.152;19.432;2022-11-20T03:48:58;29.50;;;26.40;;
66741;SDS011;53654;54.152;19.432;2022-11-20T03:51:30;28.60;;;25.50;;
66741;SDS011;53654;54.152;19.432;2022-11-20T03:54:01;28.90;;;25.80;;
66741;SDS011;53654;54.152;19.432;2022-11-20T03:56:32;28.40;;;25.30;;
66741;SDS011;53654;54.152;19.432;2022-11-20T03:59:02;29.50;;;26.40;;
66741;SDS011;53654;54.152;19.432;2022-11-20T04:01:32;29.10;;;26.00;;
66741;SDS011;53654;54.152;19.432;2022-11-20T04:04:02;29.00;;;25.80;;
66741;SDS011;53654;54.152;19.432;2022-11-20T04:06:34;28.70;;;25.60;;
66741;SDS011;53654;54.152;19.432;2022-11-20T04:09:04;29.20;;;26.20;;
66741;SDS011;53654;54.152;19.432;2022-11-20T04:11:35;28.50;;;25.50;;
66741;SDS011;53654;54.152;19.432;2022-11-20T04:14:05;28.60;;;25.10;;
66741;SDS011;53654;54.152;19.432;2022-11-20T04:16:39;29.50;;;26.30;;
66741;SDS011;53654;54.152;19.432;2022-11-20T04:19:11;28.70;;;25.50;;
66741;SDS011;53654;54.152;19.432;2022-11-20T04:21:42;29.50;;;26.30;;
66741;SDS011;53654;54.152;19.432;2022-11-20T04:24:11;30.80;;;27.50;;
66741;SDS011;53654;54.152;19.432;2022-11-20T04:26:39;32.70;;;28.10;;
66741;SDS011;53654;54.152;19.432;2022-11-20T04:29:09;31.10;;;27.70;;
66741;SDS011;53654;54.152;19.432;2022-11-20T04:31:39;30.20;;;26.90;;
66741;SDS011;53654;54.152;19.432;2022-11-20T04:34:07;30.30;;;26.70;;
66741;SDS011;53654;54.152;19.432;2022-11-20T04:36:39;30.70;;;27.00;;
66741;SDS011;53654;54.152;19.432;2022-11-20T04:39:11;30.20;;;26.70;;
66741;SDS011;53654;54.152;19.432;2022-11-20T04:41:40;29.60;;;26.40;;
66741;SDS011;53654;54.152;19.432;2022-11-20T04:44:08;30.60;;;27.30;;
66741;SDS011;53654;54.152;19.432;2022-11-20T04:46:40;32.20;;;27.70;;
66741;SDS011;53654;54.152;19.432;2022-11-20T04:49:10;33.80;;;28.70;;
66741;SDS011;53654;54.152;19.432;2022-11-20T04:51:39;31.40;;;28.10;;
66741;SDS011;53654;54.152;19.432;2022-11-20T04:54:08;33.80;;;28.80;;
66741;SDS011;53654;54.152;19.432;2022-11-20T04:56:36;31.70;;;27.30;;
66741;SDS011;53654;54.152;19.432;2022-11-20T04:59:05;32.20;;;28.70;;
66741;SDS011;53654;54.152;19.432;2022-11-20T05:01:33;31.70;;;28.30;;
66741;SDS011;53654;54.152;19.432;2022-11-20T05:04:01;34.80;;;29.00;;
66741;SDS011;53654;54.152;19.432;2022-11-20T05:06:30;32.60;;;28.10;;
66741;SDS011;53654;54.152;19.432;2022-11-20T05:08:58;33.90;;;29.90;;
66741;SDS011;53654;54.152;19.432;2022-11-20T05:11:26;34.20;;;29.20;;
66741;SDS011;53654;54.152;19.432;2022-11-20T05:13:58;34.50;;;30.30;;
66741;SDS011;53654;54.152;19.432;2022-11-20T05:16:26;34.00;;;29.80;;
66741;SDS011;53654;54.152;19.432;2022-11-20T05:18:54;34.60;;;30.00;;
66741;SDS011;53654;54.152;19.432;2022-11-20T05:21:23;36.00;;;31.20;;
66741;SDS011;53654;54.152;19.432;2022-11-20T05:23:51;33.40;;;29.00;;
66741;SDS011;53654;54.152;19.432;2022-11-20T05:26:20;35.00;;;30.80;;
66741;SDS011;53654;54.152;19.432;2022-11-20T05:28:50;36.60;;;31.20;;
66741;SDS011;53654;54.152;19.432;2022-11-20T05:31:20;37.50;;;31.50;;
66741;SDS011;53654;54.152;19.432;2022-11-20T05:33:55;37.60;;;32.00;;
66741;SDS011;53654;54.152;19.432;2022-11-20T05:36:24;37.50;;;32.10;;
66741;SDS011;53654;54.152;19.432;2022-11-20T05:38:52;39.80;;;32.90;;
66741;SDS011;53654;54.152;19.432;2022-11-20T05:41:28;37.90;;;33.80;;
66741;SDS011;53654;54.152;19.432;2022-11-20T05:43:57;37.70;;;32.90;;
66741;SDS011;53654;54.152;19.432;2022-11-20T05:46:25;37.30;;;31.80;;
66741;SDS011;53654;54.152;19.432;2022-11-20T05:48:56;34.10;;;30.40;;
66741;SDS011;53654;54.152;19.432;2022-11-20T05:51:25;37.10;;;31.50;;
66741;SDS011;53654;54.152;19.432;2022-11-20T05:53:57;36.10;;;31.50;;
66741;SDS011;53654;54.152;19.432;2022-11-20T05:56:26;36.00;;;31.60;;
66741;SDS011;53654;54.152;19.432;2022-11-20T05:58:54;36.80;;;31.70;;
66741;SDS011;53654;54.152;19.432;2022-11-20T06:01:24;37.40;;;32.00;;
66741;SDS011;53654;54.152;19.432;2022-11-20T06:03:53;35.30;;;30.90;;
66741;SDS011;53654;54.152;19.432;2022-11-20T06:06:22;38.90;;;33.00;;
66741;SDS011;53654;54.152;19.432;2022-11-20T06:08:50;38.10;;;32.00;;
66741;SDS011;53654;54.152;19.432;2022-11-20T06:11:18;37.20;;;32.10;;
66741;SDS011;53654;54.152;19.432;2022-11-20T06:13:46;36.40;;;32.30;;
66741;SDS011;53654;54.152;19.432;2022-11-20T06:16:16;36.20;;;31.30;;
66741;SDS011;53654;54.152;19.432;2022-11-20T06:18:46;35.80;;;31.50;;
66741;SDS011;53654;54.152;19.432;2022-11-20T06:21:16;37.80;;;32.40;;
66741;SDS011;53654;54.152;19.432;2022-11-20T06:23:46;35.80;;;31.40;;
66741;SDS011;53654;54.152;19.432;2022-11-20T06:26:16;36.40;;;32.10;;
66741;SDS011;53654;54.152;19.432;2022-11-20T06:28:54;36.00;;;32.10;;
66741;SDS011;53654;54.152;19.432;2022-11-20T06:31:24;35.20;;;31.10;;
66741;SDS011;53654;54.152;19.432;2022-11-20T06:33:53;36.90;;;31.70;;
66741;SDS011;53654;54.152;19.432;2022-11-20T06:36:22;36.30;;;32.30;;
66741;SDS011;53654;54.152;19.432;2022-11-20T06:38:50;36.70;;;31.80;;
66741;SDS011;53654;54.152;19.432;2022-11-20T06:41:19;37.00;;;33.10;;
66741;SDS011;53654;54.152;19.432;2022-11-20T06:43:48;38.70;;;33.90;;
66741;SDS011;53654;54.152;19.432;2022-11-20T06:46:17;37.90;;;33.50;;
66741;SDS011;53654;54.152;19.432;2022-11-20T06:48:47;39.80;;;34.50;;
66741;SDS011;53654;54.152;19.432;2022-11-20T06:51:16;39.60;;;35.30;;
66741;SDS011;53654;54.152;19.432;2022-11-20T06:53:45;38.80;;;34.30;;
66741;SDS011;53654;54.152;19.432;2022-11-20T06:56:13;39.30;;;34.80;;
66741;SDS011;53654;54.152;19.432;2022-11-20T06:58:41;40.90;;;35.90;;
66741;SDS011;53654;54.152;19.432;2022-11-20T07:01:10;39.60;;;35.10;;
66741;SDS011;53654;54.152;19.432;2022-11-20T07:03:40;41.40;;;35.90;;
66741;SDS011;53654;54.152;19.432;2022-11-20T07:06:08;40.30;;;35.00;;
66741;SDS011;53654;54.152;19.432;2022-11-20T07:08:37;40.70;;;35.60;;
66741;SDS011;53654;54.152;19.432;2022-11-20T07:11:06;39.90;;;35.00;;
66741;SDS011;53654;54.152;19.432;2022-11-20T07:13:35;41.40;;;36.10;;
66741;SDS011;53654;54.152;19.432;2022-11-20T07:16:04;42.50;;;36.80;;
66741;SDS011;53654;54.152;19.432;2022-11-20T07:18:35;45.60;;;38.70;;
66741;SDS011;53654;54.152;19.432;2022-11-20T07:21:04;44.20;;;39.10;;
66741;SDS011;53654;54.152;19.432;2022-11-20T07:23:34;46.50;;;39.60;;
66741;SDS011;53654;54.152;19.432;2022-11-20T07:26:04;49.00;;;42.00;;
66741;SDS011;53654;54.152;19.432;2022-11-20T07:28:33;43.30;;;38.40;;
66741;SDS011;53654;54.152;19.432;2022-11-20T07:31:02;42.90;;;36.70;;
66741;SDS011;53654;54.152;19.432;2022-11-20T07:33:31;43.00;;;36.50;;
66741;SDS011;53654;54.152;19.432;2022-11-20T07:35:59;41.10;;;35.90;;
66741;SDS011;53654;54.152;19.432;2022-11-20T07:38:28;41.50;;;37.10;;
66741;SDS011;53654;54.152;19.432;2022-11-20T07:40:57;44.20;;;38.30;;
66741;SDS011;53654;54.152;19.432;2022-11-20T07:43:25;44.30;;;39.20;;
66741;SDS011;53654;54.152;19.432;2022-11-20T07:45:56;49.50;;;40.70;;
66741;SDS011;53654;54.152;19.432;2022-11-20T07:48:26;47.30;;;39.10;;
66741;SDS011;53654;54.152;19.432;2022-11-20T07:50:54;45.80;;;39.30;;
66741;SDS011;53654;54.152;19.432;2022-11-20T07:53:23;43.10;;;38.30;;
66741;SDS011;53654;54.152;19.432;2022-11-20T07:55:52;47.50;;;41.20;;
66741;SDS011;53654;54.152;19.432;2022-11-20T07:58:20;47.30;;;41.50;;
66741;SDS011;53654;54.152;19.432;2022-11-20T08:00:49;45.40;;;40.40;;
66741;SDS011;53654;54.152;19.432;2022-11-20T08:03:17;46.80;;;40.60;;
66741;SDS011;53654;54.152;19.432;2022-11-20T08:05:51;45.50;;;39.60;;
66741;SDS011;53654;54.152;19.432;2022-11-20T08:08:19;48.90;;;41.80;;
66741;SDS011;53654;54.152;19.432;2022-11-20T08:10:49;45.50;;;39.60;;
66741;SDS011;53654;54.152;19.432;2022-11-20T08:13:17;44.40;;;39.40;;
66741;SDS011;53654;54.152;19.432;2022-11-20T08:16:03;45.30;;;40.40;;
66741;SDS011;53654;54.152;19.432;2022-11-20T08:18:32;46.60;;;41.00;;
66741;SDS011;53654;54.152;19.432;2022-11-20T08:21:03;43.40;;;38.60;;
66741;SDS011;53654;54.152;19.432;2022-11-20T08:23:32;46.10;;;40.00;;
66741;SDS011;53654;54.152;19.432;2022-11-20T08:26:00;42.70;;;37.90;;
66741;SDS011;53654;54.152;19.432;2022-11-20T08:28:28;40.70;;;36.30;;
66741;SDS011;53654;54.152;19.432;2022-11-20T08:30:59;41.40;;;36.90;;
66741;SDS011;53654;54.152;19.432;2022-11-20T08:33:28;42.80;;;38.10;;
66741;SDS011;53654;54.152;19.432;2022-11-20T08:36:00;42.50;;;37.90;;
66741;SDS011;53654;54.152;19.432;2022-11-20T08:38:30;43.20;;;38.30;;
66741;SDS011;53654;54.152;19.432;2022-11-20T08:40:59;45.60;;;38.80;;
66741;SDS011;53654;54.152;19.432;2022-11-20T08:43:48;45.30;;;39.10;;
66741;SDS011;53654;54.152;19.432;2022-11-20T08:46:18;42.60;;;37.10;;
66741;SDS011;53654;54.152;19.432;2022-11-20T08:48:46;40.80;;;35.40;;
66741;SDS011;53654;54.152;19.432;2022-11-20T08:51:15;41.00;;;36.50;;
66741;SDS011;53654;54.152;19.432;2022-11-20T08:53:43;39.30;;;34.50;;
66741;SDS011;53654;54.152;19.432;2022-11-20T08:56:11;37.80;;;33.70;;
66741;SDS011;53654;54.152;19.432;2022-11-20T08:58:40;36.30;;;32.40;;
66741;SDS011;53654;54.152;19.432;2022-11-20T09:01:28;38.40;;;33.80;;
66741;SDS011;53654;54.152;19.432;2022-11-20T09:03:56;43.00;;;37.10;;
66741;SDS011;53654;54.152;19.432;2022-11-20T09:06:25;50.10;;;40.70;;
66741;SDS011;53654;54.152;19.432;2022-11-20T09:08:53;49.80;;;41.40;;
66741;SDS011;53654;54.152;19.432;2022-11-20T09:11:22;52.00;;;42.30;;
66741;SDS011;53654;54.152;19.432;2022-11-20T09:13:50;47.40;;;40.60;;
66741;SDS011;53654;54.152;19.432;2022-11-20T09:16:18;50.30;;;42.90;;
66741;SDS011;53654;54.152;19.432;2022-11-20T09:18:49;47.70;;;40.80;;
66741;SDS011;53654;54.152;19.432;2022-11-20T09:21:38;43.00;;;37.60;;
66741;SDS011;53654;54.152;19.432;2022-11-20T09:24:06;45.10;;;38.40;;
66741;SDS011;53654;54.152;19.432;2022-11-20T09:26:34;47.20;;;40.30;;
66741;SDS011;53654;54.152;19.432;2022-11-20T09:29:02;51.80;;;42.50;;
66741;SDS011;53654;54.152;19.432;2022-11-20T09:31:30;52.10;;;43.50;;
66741;SDS011;53654;54.152;19.432;2022-11-20T09:33:58;52.00;;;42.80;;
66741;SDS011;53654;54.152;19.432;2022-11-20T09:36:27;49.70;;;41.90;;
66741;SDS011;53654;54.152;19.432;2022-11-20T09:38:55;47.60;;;40.40;;
66741;SDS011;53654;54.152;19.432;2022-11-20T09:41:42;46.00;;;39.30;;
66741;SDS011;53654;54.152;19.432;2022-11-20T09:44:40;46.20;;;39.70;;
66741;SDS011;53654;54.152;19.432;2022-11-20T09:55:35;49.20;;;42.40;;
66741;SDS011;53654;54.152;19.432;2022-11-20T09:58:06;47.90;;;41.90;;
66741;SDS011;53654;54.152;19.432;2022-11-20T10:00:40;47.00;;;41.70;;
66741;SDS011;53654;54.152;19.432;2022-11-20T10:03:16;51.50;;;44.10;;
66741;SDS011;53654;54.152;19.432;2022-11-20T10:05:55;49.50;;;42.50;;
66741;SDS011;53654;54.152;19.432;2022-11-20T10:16:58;46.60;;;40.50;;
66741;SDS011;53654;54.152;19.432;2022-11-20T10:22:39;45.40;;;39.70;;
66741;SDS011;53654;54.152;19.432;2022-11-20T10:30:34;42.50;;;37.90;;
66741;SDS011;53654;54.152;19.432;2022-11-20T10:36:15;48.20;;;42.20;;
66741;SDS011;53654;54.152;19.432;2022-11-20T10:38:50;48.40;;;41.50;;
66741;SDS011;53654;54.152;19.432;2022-11-20T10:41:28;47.90;;;40.90;;
66741;SDS011;53654;54.152;19.432;2022-11-20T10:44:11;50.50;;;42.00;;
66741;SDS011;53654;54.152;19.432;2022-11-20T10:47:24;51.10;;;43.20;;
66741;SDS011;53654;54.152;19.432;2022-11-20T10:49:54;51.70;;;42.60;;
66741;SDS011;53654;54.152;19.432;2022-11-20T11:00:50;41.80;;;36.90;;
66741;SDS011;53654;54.152;19.432;2022-11-20T11:05:50;43.50;;;38.00;;
66741;SDS011;53654;54.152;19.432;2022-11-20T11:08:22;43.00;;;37.60;;
66741;SDS011;53654;54.152;19.432;2022-11-20T11:13:27;42.20;;;37.40;;
66741;SDS011;53654;54.152;19.432;2022-11-20T11:15:58;43.00;;;38.20;;
66741;SDS011;53654;54.152;19.432;2022-11-20T11:18:33;43.60;;;37.80;;
66741;SDS011;53654;54.152;19.432;2022-11-20T11:21:03;40.00;;;35.70;;
66741;SDS011;53654;54.152;19.432;2022-11-20T11:23:37;40.90;;;35.30;;
66741;SDS011;53654;54.152;19.432;2022-11-20T11:26:17;39.70;;;35.30;;
66741;SDS011;53654;54.152;19.432;2022-11-20T11:29:15;40.10;;;34.70;;
66741;SDS011;53654;54.152;19.432;2022-11-20T11:31:45;38.00;;;33.80;;
66741;SDS011;53654;54.152;19.432;2022-11-20T11:34:14;39.80;;;35.20;;
66741;SDS011;53654;54.152;19.432;2022-11-20T11:36:57;42.40;;;37.20;;
66741;SDS011;53654;54.152;19.432;2022-11-20T11:39:27;40.40;;;35.40;;
66741;SDS011;53654;54.152;19.432;2022-11-20T11:41:58;40.20;;;35.90;;
66741;SDS011;53654;54.152;19.432;2022-11-20T11:44:32;39.50;;;35.20;;
66741;SDS011;53654;54.152;19.432;2022-11-20T11:52:46;41.00;;;36.10;;
66741;SDS011;53654;54.152;19.432;2022-11-20T11:58:33;38.90;;;33.80;;
66741;SDS011;53654;54.152;19.432;2022-11-20T12:01:12;39.90;;;35.50;;
66741;SDS011;53654;54.152;19.432;2022-11-20T12:06:36;39.80;;;35.20;;
66741;SDS011;53654;54.152;19.432;2022-11-20T12:09:10;41.20;;;35.00;;
66741;SDS011;53654;54.152;19.432;2022-11-20T12:11:47;40.50;;;35.70;;
66741;SDS011;53654;54.152;19.432;2022-11-20T12:14:18;45.50;;;38.10;;
66741;SDS011;53654;54.152;19.432;2022-11-20T12:16:55;41.00;;;35.10;;
66741;SDS011;53654;54.152;19.432;2022-11-20T12:19:25;42.10;;;35.80;;
66741;SDS011;53654;54.152;19.432;2022-11-20T12:22:02;42.10;;;35.50;;
66741;SDS011;53654;54.152;19.432;2022-11-20T12:36:39;44.10;;;37.70;;
66741;SDS011;53654;54.152;19.432;2022-11-20T12:39:34;41.80;;;36.30;;
66741;SDS011;53654;54.152;19.432;2022-11-20T12:42:16;44.80;;;37.40;;
66741;SDS011;53654;54.152;19.432;2022-11-20T12:51:37;42.30;;;35.00;;
66741;SDS011;53654;54.152;19.432;2022-11-20T12:59:37;46.50;;;37.70;;
66741;SDS011;53654;54.152;19.432;2022-11-20T13:04:57;46.70;;;38.60;;
66741;SDS011;53654;54.152;19.432;2022-11-20T13:07:32;51.70;;;41.00;;
66741;SDS011;53654;54.152;19.432;2022-11-20T13:10:03;53.50;;;42.60;;
66741;SDS011;53654;54.152;19.432;2022-11-20T13:12:44;54.50;;;43.00;;
66741;SDS011;53654;54.152;19.432;2022-11-20T13:15:29;48.70;;;39.40;;
66741;SDS011;53654;54.152;19.432;2022-11-20T13:18:18;44.70;;;37.60;;
66741;SDS011;53654;54.152;19.432;2022-11-20T13:20:47;46.10;;;38.10;;
66741;SDS011;53654;54.152;19.432;2022-11-20T13:23:26;46.90;;;38.20;;
66741;SDS011;53654;54.152;19.432;2022-11-20T13:26:05;47.20;;;38.60;;
66741;SDS011;53654;54.152;19.432;2022-11-20T13:28:42;45.20;;;37.00;;
66741;SDS011;53654;54.152;19.432;2022-11-20T13:31:25;43.00;;;36.10;;
66741;SDS011;53654;54.152;19.432;2022-11-20T13:33:59;45.10;;;36.90;;
66741;SDS011;53654;54.152;19.432;2022-11-20T13:36:29;44.00;;;37.00;;
66741;SDS011;53654;54.152;19.432;2022-11-20T13:38:59;45.70;;;38.50;;
66741;SDS011;53654;54.152;19.432;2022-11-20T13:41:34;43.80;;;36.80;;
66741;SDS011;53654;54.152;19.432;2022-11-20T13:46:42;44.60;;;37.30;;
66741;SDS011;53654;54.152;19.432;2022-11-20T13:52:26;46.00;;;38.00;;
66741;SDS011;53654;54.152;19.432;2022-11-20T14:00:55;48.60;;;39.90;;
66741;SDS011;53654;54.152;19.432;2022-11-20T14:03:29;46.20;;;38.50;;
66741;SDS011;53654;54.152;19.432;2022-11-20T14:06:31;48.00;;;39.30;;
66741;SDS011;53654;54.152;19.432;2022-11-20T14:09:02;47.00;;;39.10;;
66741;SDS011;53654;54.152;19.432;2022-11-20T14:11:31;51.20;;;41.80;;
66741;SDS011;53654;54.152;19.432;2022-11-20T14:14:04;56.10;;;45.50;;
66741;SDS011;53654;54.152;19.432;2022-11-20T14:16:43;56.70;;;47.60;;
66741;SDS011;53654;54.152;19.432;2022-11-20T14:21:50;64.60;;;53.00;;
66741;SDS011;53654;54.152;19.432;2022-11-20T14:24:21;63.80;;;53.70;;
66741;SDS011;53654;54.152;19.432;2022-11-20T14:26:51;57.50;;;48.40;;
66741;SDS011;53654;54.152;19.432;2022-11-20T14:29:29;57.80;;;48.40;;
66741;SDS011;53654;54.152;19.432;2022-11-20T14:32:02;62.30;;;49.80;;
66741;SDS011;53654;54.152;19.432;2022-11-20T14:34:32;55.80;;;45.30;;
66741;SDS011;53654;54.152;19.432;2022-11-20T14:37:05;53.80;;;43.30;;
66741;SDS011;53654;54.152;19.432;2022-11-20T14:39:48;63.80;;;49.10;;
66741;SDS011;53654;54.152;19.432;2022-11-20T14:42:24;61.00;;;47.70;;
66741;SDS011;53654;54.152;19.432;2022-11-20T14:44:55;72.10;;;52.00;;
66741;SDS011;53654;54.152;19.432;2022-11-20T14:47:26;69.80;;;51.70;;
66741;SDS011;53654;54.152;19.432;2022-11-20T14:49:57;69.10;;;51.80;;
66741;SDS011;53654;54.152;19.432;2022-11-20T14:52:27;67.90;;;51.10;;
66741;SDS011;53654;54.152;19.432;2022-11-20T14:54:56;68.60;;;50.70;;
66741;SDS011;53654;54.152;19.432;2022-11-20T14:57:29;71.00;;;51.40;;
66741;SDS011;53654;54.152;19.432;2022-11-20T15:00:05;70.80;;;51.90;;
66741;SDS011;53654;54.152;19.432;2022-11-20T15:02:46;66.30;;;48.00;;
66741;SDS011;53654;54.152;19.432;2022-11-20T15:05:16;71.50;;;50.30;;
66741;SDS011;53654;54.152;19.432;2022-11-20T15:07:47;66.60;;;49.20;;
66741;SDS011;53654;54.152;19.432;2022-11-20T15:15:54;66.50;;;49.60;;
66741;SDS011;53654;54.152;19.432;2022-11-20T15:18:37;65.10;;;49.50;;
66741;SDS011;53654;54.152;19.432;2022-11-20T15:21:10;57.20;;;44.40;;
66741;SDS011;53654;54.152;19.432;2022-11-20T15:23:40;58.10;;;46.60;;
66741;SDS011;53654;54.152;19.432;2022-11-20T15:26:09;66.50;;;50.20;;
66741;SDS011;53654;54.152;19.432;2022-11-20T15:28:45;61.20;;;48.10;;
66741;SDS011;53654;54.152;19.432;2022-11-20T15:31:16;62.10;;;47.50;;
66741;SDS011;53654;54.152;19.432;2022-11-20T15:33:47;67.90;;;49.10;;
66741;SDS011;53654;54.152;19.432;2022-11-20T15:36:15;61.80;;;48.30;;
66741;SDS011;53654;54.152;19.432;2022-11-20T15:38:44;60.90;;;48.20;;
66741;SDS011;53654;54.152;19.432;2022-11-20T15:41:12;56.00;;;46.20;;
66741;SDS011;53654;54.152;19.432;2022-11-20T15:43:40;55.80;;;46.30;;
66741;SDS011;53654;54.152;19.432;2022-11-20T15:46:12;54.00;;;44.80;;
66741;SDS011;53654;54.152;19.432;2022-11-20T15:48:47;56.00;;;45.80;;
66741;SDS011;53654;54.152;19.432;2022-11-20T15:51:33;60.50;;;49.00;;
66741;SDS011;53654;54.152;19.432;2022-11-20T15:54:13;63.80;;;50.60;;
66741;SDS011;53654;54.152;19.432;2022-11-20T15:56:49;60.40;;;50.30;;
66741;SDS011;53654;54.152;19.432;2022-11-20T15:59:20;56.70;;;48.40;;
66741;SDS011;53654;54.152;19.432;2022-11-20T16:01:48;55.10;;;47.90;;
66741;SDS011;53654;54.152;19.432;2022-11-20T16:04:16;59.20;;;49.10;;
66741;SDS011;53654;54.152;19.432;2022-11-20T16:06:45;60.90;;;51.00;;
66741;SDS011;53654;54.152;19.432;2022-11-20T16:09:14;59.70;;;50.20;;
66741;SDS011;53654;54.152;19.432;2022-11-20T16:11:42;60.30;;;50.10;;
66741;SDS011;53654;54.152;19.432;2022-11-20T16:14:10;60.40;;;51.10;;
66741;SDS011;53654;54.152;19.432;2022-11-20T16:16:57;61.00;;;50.60;;
66741;SDS011;53654;54.152;19.432;2022-11-20T16:19:25;74.60;;;59.20;;
66741;SDS011;53654;54.152;19.432;2022-11-20T16:21:53;74.30;;;59.20;;